createdAt,value
2017-07-29T00:01:20.552Z,24.35
2017-07-29T00:03:48.068Z,24.42
2017-07-29T00:06:15.664Z,24.40
2017-07-29T00:08:43.201Z,24.34
2017-07-29T00:11:10.708Z,24.36
2017-07-29T00:13:38.264Z,24.37
2017-07-29T00:16:05.767Z,24.32
2017-07-29T00:18:33.261Z,24.36
2017-07-29T00:21:00.809Z,24.39
2017-07-29T00:23:28.301Z,24.29
2017-07-29T00:25:55.876Z,24.28
2017-07-29T00:28:23.376Z,24.30
2017-07-29T00:30:50.924Z,24.29
2017-07-29T00:33:18.479Z,24.30
2017-07-29T00:35:45.982Z,24.33
2017-07-29T00:38:13.528Z,24.31
2017-07-29T00:40:41.079Z,24.33
2017-07-29T00:43:08.589Z,24.33
2017-07-29T00:45:36.133Z,24.25
2017-07-29T00:48:03.633Z,24.24
2017-07-29T00:50:31.197Z,24.31
2017-07-29T00:52:58.700Z,24.32
2017-07-29T00:55:26.202Z,24.29
2017-07-29T00:57:53.784Z,24.23
2017-07-29T01:00:21.283Z,24.23
2017-07-29T01:02:48.781Z,24.27
2017-07-29T01:05:16.352Z,24.26
2017-07-29T01:07:43.897Z,24.26
2017-07-29T01:10:11.401Z,24.23
2017-07-29T01:12:38.897Z,24.18
2017-07-29T01:15:06.449Z,24.20
2017-07-29T01:17:33.949Z,24.14
2017-07-29T01:20:01.445Z,24.12
2017-07-29T01:22:29.006Z,24.15
2017-07-29T01:24:56.505Z,24.13
2017-07-29T01:27:24.009Z,24.12
2017-07-29T01:29:51.550Z,24.15
2017-07-29T01:32:19.093Z,24.08
2017-07-29T01:34:46.585Z,24.15
2017-07-29T01:37:14.121Z,24.14
2017-07-29T01:39:41.620Z,24.14
2017-07-29T01:42:09.178Z,24.19
2017-07-29T01:44:36.684Z,24.10
2017-07-29T01:47:04.193Z,24.02
2017-07-29T01:49:31.753Z,24.08
2017-07-29T01:51:59.248Z,24.05
2017-07-29T01:54:26.746Z,24.08
2017-07-29T01:56:54.299Z,24.04
2017-07-29T01:59:21.832Z,24.04
2017-07-29T02:01:49.377Z,24.01
2017-07-29T02:04:16.946Z,24.03
2017-07-29T02:06:44.446Z,24.02
2017-07-29T02:09:11.976Z,24.05
2017-07-29T02:11:39.519Z,23.97
2017-07-29T02:14:07.023Z,24.00
2017-07-29T02:16:34.525Z,23.96
2017-07-29T02:19:02.062Z,23.99
2017-07-29T02:21:29.623Z,24.05
2017-07-29T02:23:57.116Z,24.00
2017-07-29T02:26:24.609Z,23.98
2017-07-29T02:28:52.155Z,23.92
2017-07-29T02:31:19.658Z,23.97
2017-07-29T02:33:47.226Z,24.00
2017-07-29T02:36:14.725Z,23.98
2017-07-29T02:38:42.291Z,23.93
2017-07-29T02:41:09.869Z,23.89
2017-07-29T02:43:37.364Z,23.93
2017-07-29T02:46:04.861Z,23.95
2017-07-29T02:48:32.422Z,23.95
2017-07-29T02:50:59.920Z,23.87
2017-07-29T02:53:27.416Z,23.94
2017-07-29T02:55:54.977Z,23.96
2017-07-29T02:58:22.611Z,23.91
2017-07-29T03:00:50.121Z,23.94
2017-07-29T03:03:17.666Z,23.89
2017-07-29T03:05:45.173Z,23.89
2017-07-29T03:08:12.769Z,23.89
2017-07-29T03:10:40.277Z,23.89
2017-07-29T03:13:07.777Z,23.90
2017-07-29T03:15:35.321Z,23.88
2017-07-29T03:18:02.821Z,23.86
2017-07-29T03:20:30.332Z,23.86
2017-07-29T03:22:57.893Z,23.84
2017-07-29T03:25:25.461Z,23.88
2017-07-29T03:27:52.966Z,23.86
2017-07-29T03:30:20.550Z,23.82
2017-07-29T03:32:48.056Z,23.76
2017-07-29T03:35:15.557Z,23.67
2017-07-29T03:37:43.170Z,23.68
2017-07-29T03:40:10.675Z,23.67
2017-07-29T03:42:38.230Z,23.68
2017-07-29T03:45:05.726Z,23.57
2017-07-29T03:47:33.224Z,23.64
2017-07-29T03:50:00.829Z,23.71
2017-07-29T03:52:28.337Z,23.80
2017-07-29T03:54:55.841Z,23.82
2017-07-29T03:57:23.385Z,23.82
2017-07-29T03:59:50.910Z,23.86
2017-07-29T04:02:18.401Z,23.88
2017-07-29T04:04:45.940Z,23.93
2017-07-29T04:07:13.525Z,23.95
2017-07-29T04:09:41.032Z,23.98
2017-07-29T04:12:08.536Z,23.99
2017-07-29T04:14:36.080Z,24.03
2017-07-29T04:17:03.574Z,24.03
2017-07-29T04:19:31.074Z,24.03
2017-07-29T04:21:58.644Z,24.09
2017-07-29T04:24:26.152Z,24.10
2017-07-29T04:26:53.656Z,24.12
2017-07-29T04:29:21.190Z,24.16
2017-07-29T04:31:48.712Z,24.21
2017-07-29T04:34:16.241Z,24.25
2017-07-29T04:36:43.846Z,24.27
2017-07-29T04:39:11.430Z,24.29
2017-07-29T04:41:38.935Z,24.32
2017-07-29T04:44:06.440Z,24.39
2017-07-29T04:46:33.980Z,24.41
2017-07-29T04:49:01.498Z,24.44
2017-07-29T04:51:28.993Z,24.46
2017-07-29T04:53:56.541Z,24.49
2017-07-29T04:56:24.036Z,24.52
2017-07-29T04:58:51.529Z,24.53
2017-07-29T05:01:19.072Z,24.57
2017-07-29T05:03:46.565Z,24.58
2017-07-29T05:06:14.105Z,24.62
2017-07-29T05:08:41.689Z,24.64
2017-07-29T05:11:09.188Z,24.67
2017-07-29T05:13:36.687Z,24.70
2017-07-29T05:16:04.261Z,24.72
2017-07-29T05:18:31.816Z,24.75
2017-07-29T05:20:59.312Z,24.78
2017-07-29T05:23:26.821Z,24.81
2017-07-29T05:25:54.360Z,24.86
2017-07-29T05:28:21.865Z,24.88
2017-07-29T05:30:49.382Z,24.93
2017-07-29T05:33:16.924Z,24.94
2017-07-29T05:35:44.481Z,24.99
2017-07-29T05:38:11.974Z,25.02
2017-07-29T05:40:39.531Z,25.05
2017-07-29T05:43:07.032Z,25.07
2017-07-29T05:45:34.573Z,25.08
2017-07-29T05:48:02.145Z,25.14
2017-07-29T05:50:29.684Z,25.16
2017-07-29T05:52:57.229Z,25.19
2017-07-29T05:55:24.728Z,25.23
2017-07-29T05:57:52.269Z,25.25
2017-07-29T06:00:19.766Z,25.30
2017-07-29T06:02:47.315Z,25.32
2017-07-29T06:05:14.829Z,25.33
2017-07-29T06:07:42.332Z,25.37
2017-07-29T06:10:09.888Z,25.39
2017-07-29T06:12:37.396Z,25.42
2017-07-29T06:15:04.947Z,25.44
2017-07-29T06:17:32.452Z,25.47
2017-07-29T06:19:59.970Z,25.48
2017-07-29T06:22:27.694Z,25.51
2017-07-29T06:24:55.191Z,25.55
2017-07-29T06:27:22.692Z,25.56
2017-07-29T06:29:50.249Z,25.60
2017-07-29T06:32:17.796Z,25.64
2017-07-29T06:34:45.345Z,25.64
2017-07-29T06:37:12.900Z,25.67
2017-07-29T06:39:40.455Z,25.71
2017-07-29T06:42:08.000Z,25.72
2017-07-29T06:44:35.539Z,25.77
2017-07-29T06:47:03.085Z,25.75
2017-07-29T06:49:30.586Z,25.76
2017-07-29T06:51:58.089Z,25.79
2017-07-29T06:54:25.629Z,25.82
2017-07-29T06:56:53.133Z,25.82
2017-07-29T06:59:20.679Z,25.87
2017-07-29T07:01:48.325Z,25.88
2017-07-29T07:04:15.908Z,25.89
2017-07-29T07:06:43.505Z,25.88
2017-07-29T07:09:11.050Z,25.92
2017-07-29T07:11:38.553Z,25.94
2017-07-29T07:14:06.152Z,25.96
2017-07-29T07:16:33.653Z,25.97
2017-07-29T07:19:01.165Z,26.00
2017-07-29T07:21:28.733Z,26.00
2017-07-29T07:23:56.226Z,26.01
2017-07-29T07:26:23.723Z,26.02
2017-07-29T07:28:51.280Z,26.08
2017-07-29T07:31:18.782Z,26.07
2017-07-29T07:33:46.280Z,26.07
2017-07-29T07:36:13.822Z,26.08
2017-07-29T07:38:41.356Z,26.08
2017-07-29T07:41:08.896Z,26.11
2017-07-29T07:43:36.400Z,26.12
2017-07-29T07:46:03.896Z,26.11
2017-07-29T07:48:31.428Z,26.11
2017-07-29T07:50:58.937Z,26.13
2017-07-29T07:53:26.472Z,26.14
2017-07-29T07:55:53.964Z,26.14
2017-07-29T07:58:21.462Z,26.14
2017-07-29T08:00:49.001Z,26.13
2017-07-29T08:03:16.508Z,26.15
2017-07-29T08:05:44.061Z,26.16
2017-07-29T08:08:11.581Z,26.17
2017-07-29T08:10:39.104Z,26.19
2017-07-29T08:13:06.643Z,26.21
2017-07-29T08:15:34.184Z,26.21
2017-07-29T08:18:01.687Z,26.23
2017-07-29T08:20:29.240Z,26.24
2017-07-29T08:22:56.745Z,26.24
2017-07-29T08:25:24.236Z,26.24
2017-07-29T08:27:51.773Z,26.25
2017-07-29T08:30:19.317Z,26.27
2017-07-29T08:32:46.816Z,26.25
2017-07-29T08:35:14.328Z,26.25
2017-07-29T08:37:41.869Z,26.26
2017-07-29T08:40:09.364Z,26.26
2017-07-29T08:42:36.864Z,26.26
2017-07-29T08:45:04.409Z,26.25
2017-07-29T08:47:31.904Z,26.26
2017-07-29T08:49:59.428Z,26.24
2017-07-29T08:52:26.975Z,26.25
2017-07-29T08:54:54.473Z,26.26
2017-07-29T08:57:21.977Z,26.25
2017-07-29T08:59:49.537Z,26.25
2017-07-29T09:02:17.104Z,26.25
2017-07-29T09:04:44.659Z,26.24
2017-07-29T09:07:12.231Z,26.23
2017-07-29T09:09:39.720Z,26.24
2017-07-29T09:12:07.281Z,26.24
2017-07-29T09:14:34.788Z,26.23
2017-07-29T09:17:02.300Z,26.23
2017-07-29T09:19:29.854Z,26.22
2017-07-29T09:21:57.356Z,26.23
2017-07-29T09:24:24.854Z,26.21
2017-07-29T09:26:52.397Z,26.22
2017-07-29T09:29:19.890Z,26.23
2017-07-29T09:31:47.390Z,26.22
2017-07-29T09:34:14.985Z,26.23
2017-07-29T09:36:42.546Z,26.23
2017-07-29T09:39:10.045Z,26.22
2017-07-29T09:41:37.602Z,26.23
2017-07-29T09:44:05.097Z,26.22
2017-07-29T09:46:32.596Z,26.24
2017-07-29T09:49:00.189Z,26.25
2017-07-29T09:51:27.749Z,26.27
2017-07-29T09:53:55.249Z,26.23
2017-07-29T09:56:22.755Z,26.25
2017-07-29T09:58:50.296Z,26.23
2017-07-29T10:01:17.820Z,26.26
2017-07-29T10:03:45.354Z,26.26
2017-07-29T10:06:12.897Z,26.25
2017-07-29T10:08:40.388Z,26.26
2017-07-29T10:11:07.946Z,26.26
2017-07-29T10:13:35.444Z,26.26
2017-07-29T10:16:02.942Z,26.27
2017-07-29T10:18:30.492Z,26.28
2017-07-29T10:20:57.996Z,26.27
2017-07-29T10:23:25.490Z,26.28
2017-07-29T10:25:53.067Z,26.29
2017-07-29T10:28:20.569Z,26.30
2017-07-29T10:30:48.071Z,26.32
2017-07-29T10:33:15.638Z,26.36
2017-07-29T10:35:43.236Z,26.35
2017-07-29T10:38:10.732Z,26.34
2017-07-29T10:40:38.236Z,26.36
2017-07-29T10:43:05.776Z,26.38
2017-07-29T10:45:33.284Z,26.40
2017-07-29T10:48:00.825Z,26.40
2017-07-29T10:50:28.321Z,26.43
2017-07-29T10:52:55.817Z,26.42
2017-07-29T10:55:23.374Z,26.43
2017-07-29T10:57:50.875Z,26.46
2017-07-29T11:00:18.413Z,26.44
2017-07-29T11:02:45.960Z,26.43
2017-07-29T11:05:13.497Z,26.50
2017-07-29T11:07:41.024Z,26.53
2017-07-29T11:10:08.575Z,26.49
2017-07-29T11:12:36.102Z,26.51
2017-07-29T11:15:03.666Z,26.52
2017-07-29T11:17:31.186Z,26.53
2017-07-29T11:19:58.711Z,26.56
2017-07-29T11:22:26.259Z,26.56
2017-07-29T11:24:53.768Z,26.58
2017-07-29T11:27:21.264Z,26.57
2017-07-29T11:29:48.824Z,26.62
2017-07-29T11:32:16.333Z,26.63
2017-07-29T11:34:43.877Z,26.67
2017-07-29T11:37:11.377Z,26.67
2017-07-29T11:39:38.872Z,26.65
2017-07-29T11:42:06.400Z,26.65
2017-07-29T11:44:33.893Z,26.65
2017-07-29T11:47:01.447Z,26.69
2017-07-29T11:49:28.969Z,26.72
2017-07-29T11:51:56.499Z,26.70
2017-07-29T11:54:24.073Z,26.71
2017-07-29T11:56:51.630Z,26.73
2017-07-29T11:59:19.139Z,26.75
2017-07-29T12:01:46.637Z,26.75
2017-07-29T12:04:14.283Z,26.75
2017-07-29T12:06:41.824Z,26.76
2017-07-29T12:09:09.385Z,26.77
2017-07-29T12:11:36.881Z,26.78
2017-07-29T12:14:04.381Z,26.82
2017-07-29T12:16:31.925Z,26.85
2017-07-29T12:18:59.441Z,26.83
2017-07-29T12:21:26.941Z,26.85
2017-07-29T12:23:54.477Z,26.85
2017-07-29T12:26:21.978Z,26.89
2017-07-29T12:28:49.521Z,26.94
2017-07-29T12:31:17.026Z,26.90
2017-07-29T12:33:45.020Z,26.95
2017-07-29T12:36:12.582Z,26.94
2017-07-29T12:38:40.089Z,26.90
2017-07-29T12:41:07.633Z,26.91
2017-07-29T12:43:35.136Z,26.92
2017-07-29T12:46:02.645Z,26.93
2017-07-29T12:48:30.201Z,26.90
2017-07-29T12:50:57.716Z,26.91
2017-07-29T12:53:25.257Z,26.91
2017-07-29T12:55:52.795Z,26.96
2017-07-29T12:58:20.328Z,26.96
2017-07-29T13:00:47.841Z,27.00
2017-07-29T13:03:15.443Z,27.01
2017-07-29T13:05:43.251Z,27.00
2017-07-29T13:08:10.788Z,27.02
2017-07-29T13:10:38.358Z,27.04
2017-07-29T13:13:05.890Z,27.06
2017-07-29T13:15:33.420Z,27.07
2017-07-29T13:18:01.029Z,27.05
2017-07-29T13:20:28.552Z,27.09
2017-07-29T13:22:56.051Z,27.06
2017-07-29T13:25:23.613Z,27.08
2017-07-29T13:27:51.122Z,27.08
2017-07-29T13:30:18.696Z,27.10
2017-07-29T13:32:46.274Z,27.09
2017-07-29T13:35:13.856Z,27.08
2017-07-29T13:37:41.378Z,27.08
2017-07-29T13:40:08.936Z,27.08
2017-07-29T13:42:36.510Z,27.09
2017-07-29T13:45:04.032Z,27.11
2017-07-29T13:47:31.616Z,27.11
2017-07-29T13:49:59.171Z,27.14
2017-07-29T13:52:26.705Z,27.11
2017-07-29T13:54:54.252Z,27.11
2017-07-29T13:57:21.933Z,27.15
2017-07-29T13:59:49.549Z,27.16
2017-07-29T14:02:17.050Z,27.16
2017-07-29T14:04:44.589Z,27.14
2017-07-29T14:07:12.134Z,27.14
2017-07-29T14:09:39.638Z,27.13
2017-07-29T14:12:07.150Z,27.15
2017-07-29T14:14:34.698Z,27.19
2017-07-29T14:17:02.395Z,27.19
2017-07-29T14:19:30.118Z,27.18
2017-07-29T14:21:57.644Z,27.18
2017-07-29T14:24:25.240Z,27.19
2017-07-29T14:26:52.779Z,27.18
2017-07-29T14:29:20.277Z,27.18
2017-07-29T14:31:47.831Z,27.17
2017-07-29T14:34:15.391Z,27.20
2017-07-29T14:36:42.941Z,27.18
2017-07-29T14:39:10.493Z,27.18
2017-07-29T14:41:38.063Z,27.22
2017-07-29T14:44:05.580Z,27.20
2017-07-29T14:46:33.101Z,27.19
2017-07-29T14:49:00.644Z,27.19
2017-07-29T14:51:28.183Z,27.18
2017-07-29T14:53:55.729Z,27.17
2017-07-29T14:56:35.262Z,27.18
2017-07-29T14:59:02.832Z,27.18
2017-07-29T15:01:30.353Z,27.18
2017-07-29T15:03:57.850Z,27.18
2017-07-29T15:06:25.424Z,27.17
2017-07-29T15:08:52.999Z,27.17
2017-07-29T15:11:20.512Z,27.18
2017-07-29T15:13:48.084Z,27.18
2017-07-29T15:16:15.684Z,27.19
2017-07-29T15:18:43.182Z,27.17
2017-07-29T15:21:10.727Z,27.17
2017-07-29T15:23:38.230Z,27.15
2017-07-29T15:26:05.809Z,27.16
2017-07-29T15:28:33.310Z,27.14
2017-07-29T15:31:00.829Z,27.13
2017-07-29T15:33:28.376Z,27.14
2017-07-29T15:35:55.889Z,27.14
2017-07-29T15:38:23.437Z,27.15
2017-07-29T15:40:51.009Z,27.13
2017-07-29T15:43:18.544Z,27.12
2017-07-29T15:45:46.053Z,27.13
2017-07-29T15:48:13.816Z,27.12
2017-07-29T15:50:41.395Z,27.14
2017-07-29T15:53:08.947Z,27.15
2017-07-29T15:55:36.445Z,27.15
2017-07-29T15:58:04.020Z,27.13
2017-07-29T16:00:31.519Z,27.14
2017-07-29T16:02:59.035Z,27.14
2017-07-29T16:05:26.590Z,27.13
2017-07-29T16:07:54.112Z,27.13
2017-07-29T16:10:21.625Z,27.12
2017-07-29T16:12:49.197Z,27.11
2017-07-29T16:15:16.705Z,27.10
2017-07-29T16:17:44.233Z,27.11
2017-07-29T16:20:11.776Z,27.13
2017-07-29T16:22:39.329Z,27.09
2017-07-29T16:25:06.892Z,27.10
2017-07-29T16:27:34.388Z,27.10
2017-07-29T16:30:01.895Z,27.10
2017-07-29T16:32:29.431Z,27.09
2017-07-29T16:34:56.976Z,27.10
2017-07-29T16:37:24.527Z,27.08
2017-07-29T16:39:52.041Z,27.07
2017-07-29T16:42:19.540Z,27.04
2017-07-29T16:44:47.084Z,27.04
2017-07-29T16:47:14.706Z,27.02
2017-07-29T16:49:42.213Z,27.03
2017-07-29T16:52:09.781Z,27.03
2017-07-29T16:54:37.341Z,27.03
2017-07-29T16:57:04.845Z,26.98
2017-07-29T16:59:32.384Z,26.95
2017-07-29T17:01:59.920Z,26.96
2017-07-29T17:04:27.429Z,26.94
2017-07-29T17:06:54.964Z,26.96
2017-07-29T17:09:22.464Z,26.97
2017-07-29T17:11:50.005Z,26.95
2017-07-29T17:14:17.559Z,26.95
2017-07-29T17:16:45.061Z,26.95
2017-07-29T17:19:12.604Z,26.93
2017-07-29T17:21:40.136Z,26.94
2017-07-29T17:24:07.638Z,26.94
2017-07-29T17:26:35.175Z,26.94
2017-07-29T17:29:02.715Z,26.94
2017-07-29T17:31:30.245Z,26.93
2017-07-29T17:33:57.794Z,26.93
2017-07-29T17:36:25.337Z,26.90
2017-07-29T17:38:52.876Z,26.90
2017-07-29T17:41:20.402Z,26.89
2017-07-29T17:43:47.945Z,26.89
2017-07-29T17:46:15.453Z,26.89
2017-07-29T17:48:43.006Z,26.87
2017-07-29T17:51:10.513Z,26.86
2017-07-29T17:53:38.015Z,26.86
2017-07-29T17:56:05.562Z,26.85
2017-07-29T17:58:33.066Z,26.83
2017-07-29T18:01:00.561Z,26.79
2017-07-29T18:03:28.138Z,26.77
2017-07-29T18:05:55.637Z,26.75
2017-07-29T18:08:23.145Z,26.72
2017-07-29T18:10:50.691Z,26.71
2017-07-29T18:13:18.236Z,26.68
2017-07-29T18:15:45.833Z,26.69
2017-07-29T18:18:13.412Z,26.68
2017-07-29T18:20:40.917Z,26.67
2017-07-29T18:23:08.466Z,26.66
2017-07-29T18:25:35.981Z,26.63
2017-07-29T18:28:03.921Z,26.62
2017-07-29T18:30:31.524Z,26.62
2017-07-29T18:32:59.033Z,26.61
2017-07-29T18:35:26.549Z,26.58
2017-07-29T18:37:54.091Z,26.56
2017-07-29T18:40:21.595Z,26.56
2017-07-29T18:42:49.117Z,26.52
2017-07-29T18:45:16.686Z,26.48
2017-07-29T18:47:44.358Z,26.47
2017-07-29T18:50:11.864Z,26.44
2017-07-29T18:52:39.429Z,26.42
2017-07-29T18:55:07.005Z,26.38
2017-07-29T18:57:34.524Z,26.39
2017-07-29T19:00:02.033Z,26.39
2017-07-29T19:02:29.565Z,26.37
2017-07-29T19:04:57.102Z,26.35
2017-07-29T19:07:24.642Z,26.32
2017-07-29T19:09:52.207Z,26.31
2017-07-29T19:12:19.706Z,26.31
2017-07-29T19:14:47.295Z,26.29
2017-07-29T19:17:14.852Z,26.30
2017-07-29T19:19:42.405Z,26.29
2017-07-29T19:22:09.901Z,26.26
2017-07-29T19:24:37.432Z,26.30
2017-07-29T19:27:04.981Z,26.30
2017-07-29T19:29:32.527Z,26.25
2017-07-29T19:32:00.037Z,26.25
2017-07-29T19:34:27.550Z,26.24
2017-07-29T19:36:55.111Z,26.23
2017-07-29T19:39:22.607Z,26.22
2017-07-29T19:41:50.104Z,26.22
2017-07-29T19:44:17.734Z,26.16
2017-07-29T19:46:45.289Z,26.13
2017-07-29T19:49:12.880Z,26.15
2017-07-29T19:51:40.397Z,26.15
2017-07-29T19:54:07.957Z,26.12
2017-07-29T19:56:35.453Z,26.10
2017-07-29T19:59:02.949Z,26.09
2017-07-29T20:01:30.533Z,26.11
2017-07-29T20:03:58.036Z,26.11
2017-07-29T20:06:25.617Z,26.11
2017-07-29T20:08:53.116Z,26.11
2017-07-29T20:11:20.651Z,26.06
2017-07-29T20:13:48.202Z,26.06
2017-07-29T20:16:15.767Z,26.06
2017-07-29T20:18:43.265Z,25.98
2017-07-29T20:21:10.799Z,25.99
2017-07-29T20:23:38.329Z,25.94
2017-07-29T20:26:05.839Z,25.96
2017-07-29T20:28:33.393Z,25.89
2017-07-29T20:31:00.894Z,25.93
2017-07-29T20:33:28.401Z,25.91
2017-07-29T20:35:55.941Z,25.89
2017-07-29T20:38:23.443Z,25.85
2017-07-29T20:40:50.997Z,25.83
2017-07-29T20:43:18.601Z,25.77
2017-07-29T20:45:46.123Z,25.83
2017-07-29T20:48:13.707Z,25.72
2017-07-29T20:50:41.238Z,25.78
2017-07-29T20:53:08.740Z,25.77
2017-07-29T20:55:36.277Z,25.74
2017-07-29T20:58:03.774Z,25.75
2017-07-29T21:00:31.284Z,25.72
2017-07-29T21:02:58.818Z,25.68
2017-07-29T21:05:26.312Z,25.72
2017-07-29T21:07:53.810Z,25.75
2017-07-29T21:10:21.394Z,25.72
2017-07-29T21:12:48.910Z,25.67
2017-07-29T21:15:16.438Z,25.65
2017-07-29T21:17:44.076Z,25.67
2017-07-29T21:20:11.620Z,25.67
2017-07-29T21:22:39.120Z,25.58
2017-07-29T21:25:06.685Z,25.57
2017-07-29T21:27:34.184Z,25.66
2017-07-29T21:30:01.705Z,25.61
2017-07-29T21:32:29.266Z,25.55
2017-07-29T21:34:56.801Z,25.54
2017-07-29T21:37:24.309Z,25.50
2017-07-29T21:39:51.866Z,25.55
2017-07-29T21:42:19.397Z,25.53
2017-07-29T21:44:47.858Z,25.46
2017-07-29T21:47:15.402Z,25.53
2017-07-29T21:49:42.917Z,25.50
2017-07-29T21:52:10.423Z,25.44
2017-07-29T21:54:37.960Z,25.48
2017-07-29T21:57:05.488Z,25.42
2017-07-29T21:59:33.034Z,25.44
2017-07-29T22:02:00.570Z,25.41
2017-07-29T22:04:28.109Z,25.38
2017-07-29T22:06:55.669Z,25.40
2017-07-29T22:09:23.250Z,25.45
2017-07-29T22:11:50.749Z,25.39
2017-07-29T22:14:18.301Z,25.46
2017-07-29T22:16:45.805Z,25.43
2017-07-29T22:19:13.383Z,25.41
2017-07-29T22:21:40.922Z,25.43
2017-07-29T22:24:08.426Z,25.38
2017-07-29T22:26:35.925Z,25.38
2017-07-29T22:29:03.457Z,25.34
2017-07-29T22:31:31.017Z,25.36
2017-07-29T22:33:58.510Z,25.34
2017-07-29T22:36:26.005Z,25.34
2017-07-29T22:38:53.546Z,25.36
2017-07-29T22:41:21.081Z,25.31
2017-07-29T22:43:48.639Z,25.25
2017-07-29T22:46:16.139Z,25.22
2017-07-29T22:48:43.716Z,25.22
2017-07-29T22:51:11.221Z,25.24
2017-07-29T22:53:38.772Z,25.22
2017-07-29T22:56:06.289Z,25.20
2017-07-29T22:58:33.795Z,25.24
2017-07-29T23:01:01.333Z,25.25
2017-07-29T23:03:28.829Z,25.27
2017-07-29T23:05:56.322Z,25.24
2017-07-29T23:08:23.881Z,25.15
2017-07-29T23:10:51.420Z,25.10
2017-07-29T23:13:18.962Z,25.08
2017-07-29T23:15:46.517Z,25.11
2017-07-29T23:18:14.052Z,25.09
2017-07-29T23:20:41.548Z,25.10
2017-07-29T23:23:09.137Z,25.10
2017-07-29T23:25:36.633Z,25.10
2017-07-29T23:28:04.129Z,25.11
2017-07-29T23:30:31.677Z,25.12
2017-07-29T23:32:59.173Z,25.10
2017-07-29T23:35:26.668Z,25.07
2017-07-29T23:37:54.200Z,25.02
2017-07-29T23:40:21.707Z,25.02
2017-07-29T23:42:49.249Z,24.94
2017-07-29T23:45:16.748Z,24.98
2017-07-29T23:47:44.292Z,25.00
2017-07-29T23:50:11.788Z,24.97
2017-07-29T23:52:39.325Z,24.96
2017-07-29T23:55:06.871Z,25.01
2017-07-29T23:57:34.370Z,25.03
